Newfoundland Lynx — VAAZ — position and weather

sailwx.info

Track history (hours):
 
Tides and Currents Weather Stations Pressure Air Temp Water Temp Dewpoint Dewpoint Depression Visibility Wind Speed Wind Dir Waves Ship Positions

Newfoundland Lynx

Last reported at 2018-Apr-20 08:00 UTC. Time now 2018-Apr-20 08:30 UTC.
Position N 52°12' W 052°54'.

Length 67.5 m; beam 13.5 m; draft 8.1 m.

Type: Fishing. MMSI: 316011910.

Wind from 320 at 20 knots

Barometer 1004.9 mb
Air temperature -1.4 ° C
Dewpoint -1.4 ° C

Date/timePositionNaut miles runAvg speedWind from/ knotsBaromVisibWave heightAir tempDewpointWater temp
2018-Apr-20 08:00N 52°12' W 052°54'1615.9 320 / 201004.9 -1.4-1.4
2018-Apr-20 07:00N 52°18' W 053°18'1111.0 300 / 221004.8 -1.4-0.8
2018-Apr-20 06:00N 52°18' W 053°36'0 0.0 320 / 231003.5 -0.8-0.3
2018-Apr-20 05:00N 52°18' W 053°36'6 6.0 330 / 231003.8 -1.3-0.8
2018-Apr-20 04:00N 52°24' W 053°36'4 3.7 330 / 251003.2 -1.4-0.9
2018-Apr-20 03:00N 52°24' W 053°42'0 0.0 330 / 181002.7 -1.1-0.7
2018-Apr-20 02:00N 52°24' W 053°42'4 3.7 320 / 261001.4 -1.4-1.0
2018-Apr-20 01:00N 52°24' W 053°48'0 0.0 310 / 291000.9 -1.3-0.9
2018-Apr-20 00:00N 52°24' W 053°48'0 0.0 320 / 291000.1 -1.2-0.8
2018-Apr-19 23:00N 52°24' W 053°48'0 0.0 320 / 27998.9 -1.1-0.8
2018-Apr-19 22:00N 52°24' W 053°48'0 0.0 320 / 27997.8 -1.1-0.8
2018-Apr-19 21:00N 52°24' W 053°48'0 0.0 330 / 18997.5 -0.8-0.4
2018-Apr-19 20:00N 52°24' W 053°48'0 0.0 330 / 20996.4 -0.6-0.2
2018-Apr-19 19:00N 52°24' W 053°48'4 3.7 350 / 25994.9 -0.6-0.2
2018-Apr-19 18:00N 52°24' W 053°42'0 0.0 350 / 22993.8 -0.6-0.2
2018-Apr-19 17:00N 52°24' W 053°42'4 3.7 360 / 21993.1 -0.5-0.1
2018-Apr-19 16:00N 52°24' W 053°36'4 3.7 350 / 16992.5 -0.2 0.2
2018-Apr-19 15:00N 52°24' W 053°42'0 0.0 350 / 21995.9 -0.5-0.1
2018-Apr-19 14:00N 52°24' W 053°42'0 0.0 010 / 19993.5 -0.8-0.4
2018-Apr-19 13:00N 52°24' W 053°42'4 3.7 010 / 22993.2 -0.8-0.3
2018-Apr-19 12:00N 52°24' W 053°48'0 0.0 010 / 20992.8 -0.8-0.4
2018-Apr-19 11:00N 52°24' W 053°48'4 3.7 040 / 17992.8 -0.5-0.1
2018-Apr-19 10:00N 52°24' W 053°42'0 0.0 030 / 4992.5 -0.6-0.2
2018-Apr-19 09:00N 52°24' W 053°42'0 0.0 020 / 7993.4 -0.9-0.3
2018-Apr-19 08:00N 52°24' W 053°42'4 3.7 020 / 8993.8 -0.8-0.2
2018-Apr-19 07:00N 52°24' W 053°48'4 1.8 030 / 6994.6 -0.8-0.1
2018-Apr-19 05:00N 52°24' W 053°42'0 0.0 070 / 9996.7 -0.5 0.3
2018-Apr-19 04:00N 52°24' W 053°42'0 0.0 060 / 15997.6 -1.0-0.2
2018-Apr-19 03:00N 52°24' W 053°42'4 3.7 070 / 17998.8 -0.9-0.1
2018-Apr-19 02:00N 52°24' W 053°48'0 0.0 060 / 20999.5 -0.9-0.4
2018-Apr-19 01:00N 52°24' W 053°48'0 0.0 070 / 221002.0 -1.1-0.6
2018-Apr-19 00:00N 52°24' W 053°48'4 3.7 070 / 171003.1 -0.8-0.6
2018-Apr-18 23:00N 52°24' W 053°42'0 0.0 080 / 131004.1 -1.2-1.1
2018-Apr-18 22:00N 52°24' W 053°42'0 0.0 080 / 81005.2 -1.7-1.7
2018-Apr-18 21:00N 52°24' W 053°42'4 3.7 080 / 101005.5 -1.8-1.7
2018-Apr-18 20:00N 52°24' W 053°48'0 0.0 100 / 141006.6 -2.0-2.0
2018-Apr-18 19:00N 52°24' W 053°48'4 3.7 080 / 151008.3 -1.6-1.8
2018-Apr-18 18:00N 52°24' W 053°42'0 0.0 090 / 141009.2 -1.4-1.3
2018-Apr-18 17:00N 52°24' W 053°42'4 3.7 090 / 151011.1 -2.0-1.8
2018-Apr-18 16:00N 52°24' W 053°48'0 0.0 110 / 151012.1 -1.8-1.5
2018-Apr-18 14:00N 52°24' W 053°48'4 3.7 100 / 121013.6 -2.0-1.9
2018-Apr-18 13:00N 52°24' W 053°42'4 3.7 110 / 91016.3 -1.8-1.9
2018-Apr-18 12:00N 52°24' W 053°48'0 0.0 100 / 101016.3 -2.1-2.4
2018-Apr-18 11:00N 52°24' W 053°48'0 0.0 110 / 101017.2 -2.1-2.3
2018-Apr-18 10:00N 52°24' W 053°48'7 7.0 110 / 81018.2 -2.2-2.3
2018-Apr-18 09:00N 52°18' W 053°42'6 6.0 100 / 71018.0 -2.9-3.1
2018-Apr-18 08:00N 52°24' W 053°42'0 0.0 090 / 71018.1 -3.1-3.4
2018-Apr-18 07:00N 52°24' W 053°42'0 0.0 060 / 41018.4 -3.2-3.6
2018-Apr-18 06:00N 52°24' W 053°42'4 3.7 010 / 51018.6 -3.3-3.9
2018-Apr-18 05:00N 52°24' W 053°48'0 0.0 360 / 61019.3 -3.2-4.0
2018-Apr-18 04:00N 52°24' W 053°48'4 3.7 340 / 61019.7 -2.9-3.8
2018-Apr-18 03:00N 52°24' W 053°42'0 0.0 340 / 81019.9 -2.8-3.9
2018-Apr-18 02:00N 52°24' W 053°42'4 3.7 330 / 91020.8 -2.5-4.0
2018-Apr-18 01:00N 52°24' W 053°36'4 3.7 310 / 101021.7 -2.4-3.7
2018-Apr-18 00:00N 52°24' W 053°42'0 0.0 300 / 81021.4 -2.0-3.6
2018-Apr-17 23:00N 52°24' W 053°42'4 3.7 320 / 111020.7 -2.7-4.2
2018-Apr-17 22:00N 52°24' W 053°48'4 3.7 300 / 141020.6 -2.3-4.1
2018-Apr-17 21:00N 52°24' W 053°54'4 3.7 310 / 151020.5 -1.4-3.6
2018-Apr-17 20:00N 52°24' W 053°48'4 3.7 300 / 151020.3 -1.4-3.7
2018-Apr-17 19:00N 52°24' W 053°42'0 0.0 300 / 161020.6 -1.8-3.8
2018-Apr-17 18:00N 52°24' W 053°42'4 3.7 310 / 191020.2 -1.7-4.0
2018-Apr-17 17:00N 52°24' W 053°36'0 0.0 300 / 201019.9 -1.9-4.2
2018-Apr-17 16:00N 52°24' W 053°36'4 3.7 310 / 201020.7 -1.2-3.6
2018-Apr-17 15:00N 52°24' W 053°42'0 0.0 300 / 211020.4 -1.2-3.6
2018-Apr-17 14:00N 52°24' W 053°42'4 3.7 310 / 241020.1 -2.2-4.5
2018-Apr-17 13:00N 52°24' W 053°48'0 0.0 300 / 251020.2 -2.3-4.6
2018-Apr-17 12:00N 52°24' W 053°48'4 3.7 300 / 251020.0 -2.6-4.9
2018-Apr-17 11:00N 52°24' W 053°54'0 0.0 290 / 251019.7 -3.1-5.3
2018-Apr-17 10:00N 52°24' W 053°54'4 3.7 310 / 221019.8 -2.9-5.2
2018-Apr-17 09:00N 52°24' W 053°48'0 0.0 310 / 231018.8 -3.0-5.3
2018-Apr-17 08:00N 52°24' W 053°48'4 3.7 310 / 241018.5 -3.1-5.8
2018-Apr-17 07:00N 52°24' W 053°42'0 0.0 310 / 231018.6 -3.4-6.4
2018-Apr-17 06:00N 52°24' W 053°42'4 3.7 330 / 261018.7 -3.4-7.0
2018-Apr-17 05:00N 52°24' W 053°36'9 9.5 310 / 261018.6 -3.7-7.0
2018-Apr-17 04:00N 52°18' W 053°48'0 0.0 320 / 231019.6 -3.6-7.2
2018-Apr-17 03:00N 52°18' W 053°48'4 3.7 330 / 311019.7 -3.7-7.6
2018-Apr-17 02:00N 52°18' W 053°42'7 7.0 320 / 291020.2 -3.6-7.8
2018-Apr-17 01:00N 52°24' W 053°48'0 0.0 330 / 301020.8 -4.2-8.8
2018-Apr-17 00:00N 52°24' W 053°48'4 3.7 330 / 301020.3 -4.0-8.9
2018-Apr-16 23:00N 52°24' W 053°42'4 3.7 310 / 281020.2 -3.9-8.1
2018-Apr-16 22:00N 52°24' W 053°36'4 1.8 310 / 291019.6 -3.4-8.0
2018-Apr-16 20:00N 52°24' W 053°42'0 0.0 310 / 311020.9 -3.9-8.4
2018-Apr-16 19:00N 52°24' W 053°42'4 1.8 310 / 291021.5 -4.0-8.2
2018-Apr-16 17:00N 52°24' W 053°48'0 0.0 300 / 331021.6 -4.9-8.7
2018-Apr-16 15:00N 52°24' W 053°48'   310 / 271024.0 -3.6-6.4
2018-Apr-13 13:00N 51°12' W 053°06'0 0.0 210 / 101020.4 -0.5-3.0
2018-Apr-13 12:00N 51°12' W 053°06'4 3.8 220 / 91020.5 -0.3-3.3
2018-Apr-13 11:00N 51°12' W 053°12'6 6.0 220 / 81020.4 1.0-2.6
2018-Apr-13 10:00N 51°06' W 053°12'6 6.0 190 / 91020.0 -1.2-3.5
2018-Apr-13 09:00N 51°12' W 053°12'4 3.8 200 / 51020.0 -1.6-3.7
2018-Apr-13 08:00N 51°12' W 053°06'0 0.0 240 / 61019.8 -2.1-4.8
2018-Apr-13 07:00N 51°12' W 053°06'6 6.0 270 / 61019.6 -2.4-4.8
2018-Apr-13 06:00N 51°18' W 053°06'0 0.0 280 / 81019.3 -2.1-4.1
2018-Apr-13 05:00N 51°18' W 053°06'4 3.8 250 / 41019.2 -2.0-4.0
2018-Apr-13 04:00N 51°18' W 053°00'7 7.1 200 / 31019.2 -2.4-3.3
2018-Apr-13 03:00N 51°24' W 052°54'0 0.0 160 / 61019.2 -2.3-2.9
2018-Apr-13 02:00N 51°24' W 052°54'0 0.0 170 / 81019.3 -2.3-3.0
2018-Apr-13 01:00N 51°24' W 052°54'0 0.0 210 / 61019.5 -2.0-2.6
2018-Apr-13 00:00N 51°24' W 052°54'0 0.0 210 / 41019.3 -2.1-2.6
2018-Apr-12 23:00N 51°24' W 052°54'4 3.7 230 / 51019.0 -2.5-3.1
2018-Apr-12 22:00N 51°24' W 053°00'7 7.1 220 / 21018.3 -1.0-2.2
2018-Apr-12 21:00N 51°18' W 053°06'0 0.0 240 / 21018.2 0.8-2.3
2018-Apr-12 20:00N 51°18' W 053°06'0 0.0 270 / 51018.2 1.2-2.3
2018-Apr-12 19:00N 51°18' W 053°06'6 6.0 280 / 71018.5 1.7-2.3
2018-Apr-12 18:00N 51°12' W 053°06'4 3.8 290 / 91018.6 0.6-2.8
2018-Apr-12 17:00N 51°12' W 053°12'0 0.0 280 / 91019.0 0.5-2.7
2018-Apr-12 16:00N 51°12' W 053°12'7 7.1 270 / 81019.1 -0.0-3.2
2018-Apr-12 15:00N 51°18' W 053°06'0 0.0 260 / 81019.1 0.3-3.7
2018-Apr-12 14:00N 51°18' W 053°06'4 3.8 260 / 111019.4 0.4-4.0
2018-Apr-12 13:00N 51°18' W 053°00'6 6.0 250 / 91019.5 -0.5-3.4
2018-Apr-12 12:00N 51°24' W 053°00'4 3.7 230 / 101019.4 -0.5-3.2
2018-Apr-12 11:00N 51°24' W 052°54'0 0.0 240 / 101019.0 -0.9-3.7
2018-Apr-12 10:00N 51°24' W 052°54'0 0.0 240 / 101019.2 -1.9-3.7
2018-Apr-12 09:00N 51°24' W 052°54'4 3.7 250 / 91018.7 -2.7-4.3
2018-Apr-12 08:00N 51°24' W 053°00'7 7.1 250 / 71018.9 -2.6-4.1
2018-Apr-12 07:00N 51°18' W 053°06'0 0.0 260 / 61018.5 -2.5-4.1
2018-Apr-12 06:00N 51°18' W 053°06'0 0.0 270 / 71018.5 -2.2-4.3
2018-Apr-12 05:00N 51°18' W 053°06'7 7.1 260 / 81018.5 -2.3-3.6
2018-Apr-12 04:00N 51°12' W 053°12'7 7.1 260 / 91018.7 -2.0-3.4
2018-Apr-12 03:00N 51°18' W 053°06'0 0.0 250 / 101019.0 -1.6-2.9
2018-Apr-12 02:00N 51°18' W 053°06'4 3.8 230 / 101019.0 -1.6-2.9
2018-Apr-12 01:00N 51°18' W 053°00'7 7.1 200 / 111018.6 -1.8-3.1
2018-Apr-12 00:00N 51°24' W 052°54'0 0.0 190 / 101018.5 -1.9-3.0
2018-Apr-11 23:00N 51°24' W 052°54'0 0.0 190 / 131018.1 -2.0-2.6
2018-Apr-11 22:00N 51°24' W 052°54'4 3.7 210 / 111017.9 -1.7-2.5
2018-Apr-11 21:00N 51°24' W 052°48'6 6.0 210 / 111017.8 -1.1-2.2
2018-Apr-11 20:00N 51°30' W 052°48'7 7.1 230 / 131018.2 -0.1-0.5
2018-Apr-11 19:00N 51°24' W 052°54'0 0.0 230 / 81018.0 -0.1-1.2
2018-Apr-11 18:00N 51°24' W 052°54'0 0.0 230 / 111018.1 -0.0-1.0
2018-Apr-11 17:00N 51°24' W 052°54'7 7.1 240 / 91018.4 0.1-1.0
2018-Apr-11 16:00N 51°18' W 053°00'4 3.8 220 / 91018.9 0.4-0.4
2018-Apr-11 15:00N 51°18' W 053°06'0 0.0 220 / 111019.3 -0.0-0.1
2018-Apr-11 14:00N 51°18' W 053°06'10 9.6 220 / 121019.2 -0.8-0.9
2018-Apr-11 13:00N 51°24' W 052°54'0 0.0 210 / 141019.5 -1.2-1.6
2018-Apr-11 12:00N 51°24' W 052°54'4 3.7 210 / 121019.2 -1.3-1.9
2018-Apr-11 11:00N 51°24' W 052°48'0 0.0 210 / 121018.9 -1.4-2.3
2018-Apr-11 10:00N 51°24' W 052°48'4 3.7 220 / 131018.4 -1.2-2.7
2018-Apr-11 09:00N 51°24' W 052°42'6 6.0 210 / 111018.1 -2.0-3.0
2018-Apr-11 08:00N 51°30' W 052°42'0 0.0 230 / 121017.8 -1.9-3.2
2018-Apr-11 07:00N 51°30' W 052°42'7 7.1 250 / 121017.4 -2.0-3.2
2018-Apr-11 06:00N 51°36' W 052°36'0 0.0 260 / 141017.2 -1.9-2.8
2018-Apr-11 05:00N 51°36' W 052°36'6 6.0 280 / 181016.7 -2.0-3.1
2018-Apr-11 04:00N 51°30' W 052°36'4 3.7 270 / 151016.7 -1.5-3.0
2018-Apr-11 03:00N 51°30' W 052°42'0 0.0 270 / 181016.2 -2.1-3.0
2018-Apr-11 02:00N 51°30' W 052°42'4 3.7 280 / 151015.5 -2.1-2.7
2018-Apr-11 01:00N 51°30' W 052°48'6 6.0 270 / 111015.0 -2.1-2.9
2018-Apr-11 00:00N 51°24' W 052°48'0 0.0 260 / 131014.2 -2.0-3.6
2018-Apr-10 23:00N 51°24' W 052°48'4 3.7 270 / 121013.3 -2.2-4.2
2018-Apr-10 22:00N 51°24' W 052°54'4 1.9 270 / 121012.3 -2.1-4.6
2018-Apr-10 20:00N 51°24' W 052°48'4 3.7 280 / 221010.2 -1.3-5.6
2018-Apr-10 19:00N 51°24' W 052°54'0 0.0 270 / 231009.2 -2.1-6.3
2018-Apr-10 18:00N 51°24' W 052°54'1312.7 280 / 221008.4 -2.0-6.1
2018-Apr-10 17:00N 51°18' W 053°12'1111.3 290 / 251007.9 -2.1-6.3
2018-Apr-10 16:00N 51°18' W 053°30'1111.3 290 / 221007.5 -2.1-6.5
2018-Apr-10 15:00N 51°18' W 053°48'1312.8 280 / 241006.7 -2.5-6.6
2018-Apr-10 14:00N 51°12' W 054°06'1111.3 280 / 221005.8 -1.9-6.3
2018-Apr-10 13:00N 51°12' W 054°24'1111.3 290 / 221004.9 -3.1-7.2
2018-Apr-10 12:00N 51°12' W 054°42'8 7.5 290 / 251003.8 -3.9-7.6
2018-Apr-10 11:00N 51°12' W 054°54'8 7.5 280 / 251002.8 -4.2-7.8
2018-Apr-10 10:00N 51°12' W 055°06'0 0.0 280 / 241001.4 -4.4-8.0
2018-Apr-10 09:00N 51°12' W 055°06'4 3.8 270 / 28999.5 -4.5-7.7
2018-Apr-10 08:00N 51°12' W 055°12'   260 / 28998.1 -4.8-6.7
Track history (hours):
 
Tides and Currents Weather Stations Pressure Air Temp Water Temp Dewpoint Dewpoint Depression Visibility Wind Speed Wind Dir Waves Ship Positions

Newfoundland Lynx

Last reported at 2018-Apr-20 08:00 UTC. Time now 2018-Apr-20 08:30 UTC.
Position N 52°12' W 052°54'.

Length 67.5 m; beam 13.5 m; draft 8.1 m.

Type: Fishing. MMSI: 316011910.

Wind from 320 at 20 knots

Barometer 1004.9 mb
Air temperature -1.4 ° C
Dewpoint -1.4 ° C

Date/timePositionNaut miles runAvg speedWind from/ knotsBaromVisibWave heightAir tempDewpointWater temp
2018-Apr-20 08:00N 52°12' W 052°54'1615.9 320 / 201004.9 -1.4-1.4
2018-Apr-20 07:00N 52°18' W 053°18'1111.0 300 / 221004.8 -1.4-0.8
2018-Apr-20 06:00N 52°18' W 053°36'0 0.0 320 / 231003.5 -0.8-0.3
2018-Apr-20 05:00N 52°18' W 053°36'6 6.0 330 / 231003.8 -1.3-0.8
2018-Apr-20 04:00N 52°24' W 053°36'4 3.7 330 / 251003.2 -1.4-0.9
2018-Apr-20 03:00N 52°24' W 053°42'0 0.0 330 / 181002.7 -1.1-0.7
2018-Apr-20 02:00N 52°24' W 053°42'4 3.7 320 / 261001.4 -1.4-1.0
2018-Apr-20 01:00N 52°24' W 053°48'0 0.0 310 / 291000.9 -1.3-0.9
2018-Apr-20 00:00N 52°24' W 053°48'0 0.0 320 / 291000.1 -1.2-0.8
2018-Apr-19 23:00N 52°24' W 053°48'0 0.0 320 / 27998.9 -1.1-0.8
2018-Apr-19 22:00N 52°24' W 053°48'0 0.0 320 / 27997.8 -1.1-0.8
2018-Apr-19 21:00N 52°24' W 053°48'0 0.0 330 / 18997.5 -0.8-0.4
2018-Apr-19 20:00N 52°24' W 053°48'0 0.0 330 / 20996.4 -0.6-0.2
2018-Apr-19 19:00N 52°24' W 053°48'4 3.7 350 / 25994.9 -0.6-0.2
2018-Apr-19 18:00N 52°24' W 053°42'0 0.0 350 / 22993.8 -0.6-0.2
2018-Apr-19 17:00N 52°24' W 053°42'4 3.7 360 / 21993.1 -0.5-0.1
2018-Apr-19 16:00N 52°24' W 053°36'4 3.7 350 / 16992.5 -0.2 0.2
2018-Apr-19 15:00N 52°24' W 053°42'0 0.0 350 / 21995.9 -0.5-0.1
2018-Apr-19 14:00N 52°24' W 053°42'0 0.0 010 / 19993.5 -0.8-0.4
2018-Apr-19 13:00N 52°24' W 053°42'4 3.7 010 / 22993.2 -0.8-0.3
2018-Apr-19 12:00N 52°24' W 053°48'0 0.0 010 / 20992.8 -0.8-0.4
2018-Apr-19 11:00N 52°24' W 053°48'4 3.7 040 / 17992.8 -0.5-0.1
2018-Apr-19 10:00N 52°24' W 053°42'0 0.0 030 / 4992.5 -0.6-0.2
2018-Apr-19 09:00N 52°24' W 053°42'0 0.0 020 / 7993.4 -0.9-0.3
2018-Apr-19 08:00N 52°24' W 053°42'4 3.7 020 / 8993.8 -0.8-0.2
2018-Apr-19 07:00N 52°24' W 053°48'4 1.8 030 / 6994.6 -0.8-0.1
2018-Apr-19 05:00N 52°24' W 053°42'0 0.0 070 / 9996.7 -0.5 0.3
2018-Apr-19 04:00N 52°24' W 053°42'0 0.0 060 / 15997.6 -1.0-0.2
2018-Apr-19 03:00N 52°24' W 053°42'4 3.7 070 / 17998.8 -0.9-0.1
2018-Apr-19 02:00N 52°24' W 053°48'0 0.0 060 / 20999.5 -0.9-0.4
2018-Apr-19 01:00N 52°24' W 053°48'0 0.0 070 / 221002.0 -1.1-0.6
2018-Apr-19 00:00N 52°24' W 053°48'4 3.7 070 / 171003.1 -0.8-0.6
2018-Apr-18 23:00N 52°24' W 053°42'0 0.0 080 / 131004.1 -1.2-1.1
2018-Apr-18 22:00N 52°24' W 053°42'0 0.0 080 / 81005.2 -1.7-1.7
2018-Apr-18 21:00N 52°24' W 053°42'4 3.7 080 / 101005.5 -1.8-1.7
2018-Apr-18 20:00N 52°24' W 053°48'0 0.0 100 / 141006.6 -2.0-2.0
2018-Apr-18 19:00N 52°24' W 053°48'4 3.7 080 / 151008.3 -1.6-1.8
2018-Apr-18 18:00N 52°24' W 053°42'0 0.0 090 / 141009.2 -1.4-1.3
2018-Apr-18 17:00N 52°24' W 053°42'4 3.7 090 / 151011.1 -2.0-1.8
2018-Apr-18 16:00N 52°24' W 053°48'0 0.0 110 / 151012.1 -1.8-1.5
2018-Apr-18 14:00N 52°24' W 053°48'4 3.7 100 / 121013.6 -2.0-1.9
2018-Apr-18 13:00N 52°24' W 053°42'4 3.7 110 / 91016.3 -1.8-1.9
2018-Apr-18 12:00N 52°24' W 053°48'0 0.0 100 / 101016.3 -2.1-2.4
2018-Apr-18 11:00N 52°24' W 053°48'0 0.0 110 / 101017.2 -2.1-2.3
2018-Apr-18 10:00N 52°24' W 053°48'7 7.0 110 / 81018.2 -2.2-2.3
2018-Apr-18 09:00N 52°18' W 053°42'6 6.0 100 / 71018.0 -2.9-3.1
2018-Apr-18 08:00N 52°24' W 053°42'0 0.0 090 / 71018.1 -3.1-3.4
2018-Apr-18 07:00N 52°24' W 053°42'0 0.0 060 / 41018.4 -3.2-3.6
2018-Apr-18 06:00N 52°24' W 053°42'4 3.7 010 / 51018.6 -3.3-3.9
2018-Apr-18 05:00N 52°24' W 053°48'0 0.0 360 / 61019.3 -3.2-4.0
2018-Apr-18 04:00N 52°24' W 053°48'4 3.7 340 / 61019.7 -2.9-3.8
2018-Apr-18 03:00N 52°24' W 053°42'0 0.0 340 / 81019.9 -2.8-3.9
2018-Apr-18 02:00N 52°24' W 053°42'4 3.7 330 / 91020.8 -2.5-4.0
2018-Apr-18 01:00N 52°24' W 053°36'4 3.7 310 / 101021.7 -2.4-3.7
2018-Apr-18 00:00N 52°24' W 053°42'0 0.0 300 / 81021.4 -2.0-3.6
2018-Apr-17 23:00N 52°24' W 053°42'4 3.7 320 / 111020.7 -2.7-4.2
2018-Apr-17 22:00N 52°24' W 053°48'4 3.7 300 / 141020.6 -2.3-4.1
2018-Apr-17 21:00N 52°24' W 053°54'4 3.7 310 / 151020.5 -1.4-3.6
2018-Apr-17 20:00N 52°24' W 053°48'4 3.7 300 / 151020.3 -1.4-3.7
2018-Apr-17 19:00N 52°24' W 053°42'0 0.0 300 / 161020.6 -1.8-3.8
2018-Apr-17 18:00N 52°24' W 053°42'4 3.7 310 / 191020.2 -1.7-4.0
2018-Apr-17 17:00N 52°24' W 053°36'0 0.0 300 / 201019.9 -1.9-4.2
2018-Apr-17 16:00N 52°24' W 053°36'4 3.7 310 / 201020.7 -1.2-3.6
2018-Apr-17 15:00N 52°24' W 053°42'0 0.0 300 / 211020.4 -1.2-3.6
2018-Apr-17 14:00N 52°24' W 053°42'4 3.7 310 / 241020.1 -2.2-4.5
2018-Apr-17 13:00N 52°24' W 053°48'0 0.0 300 / 251020.2 -2.3-4.6
2018-Apr-17 12:00N 52°24' W 053°48'4 3.7 300 / 251020.0 -2.6-4.9
2018-Apr-17 11:00N 52°24' W 053°54'0 0.0 290 / 251019.7 -3.1-5.3
2018-Apr-17 10:00N 52°24' W 053°54'4 3.7 310 / 221019.8 -2.9-5.2
2018-Apr-17 09:00N 52°24' W 053°48'0 0.0 310 / 231018.8 -3.0-5.3
2018-Apr-17 08:00N 52°24' W 053°48'4 3.7 310 / 241018.5 -3.1-5.8
2018-Apr-17 07:00N 52°24' W 053°42'0 0.0 310 / 231018.6 -3.4-6.4
2018-Apr-17 06:00N 52°24' W 053°42'4 3.7 330 / 261018.7 -3.4-7.0
2018-Apr-17 05:00N 52°24' W 053°36'9 9.5 310 / 261018.6 -3.7-7.0
2018-Apr-17 04:00N 52°18' W 053°48'0 0.0 320 / 231019.6 -3.6-7.2
2018-Apr-17 03:00N 52°18' W 053°48'4 3.7 330 / 311019.7 -3.7-7.6
2018-Apr-17 02:00N 52°18' W 053°42'7 7.0 320 / 291020.2 -3.6-7.8
2018-Apr-17 01:00N 52°24' W 053°48'0 0.0 330 / 301020.8 -4.2-8.8
2018-Apr-17 00:00N 52°24' W 053°48'4 3.7 330 / 301020.3 -4.0-8.9
2018-Apr-16 23:00N 52°24' W 053°42'4 3.7 310 / 281020.2 -3.9-8.1
2018-Apr-16 22:00N 52°24' W 053°36'4 1.8 310 / 291019.6 -3.4-8.0
2018-Apr-16 20:00N 52°24' W 053°42'0 0.0 310 / 311020.9 -3.9-8.4
2018-Apr-16 19:00N 52°24' W 053°42'4 1.8 310 / 291021.5 -4.0-8.2
2018-Apr-16 17:00N 52°24' W 053°48'0 0.0 300 / 331021.6 -4.9-8.7
2018-Apr-16 15:00N 52°24' W 053°48'   310 / 271024.0 -3.6-6.4
2018-Apr-13 13:00N 51°12' W 053°06'0 0.0 210 / 101020.4 -0.5-3.0
2018-Apr-13 12:00N 51°12' W 053°06'4 3.8 220 / 91020.5 -0.3-3.3
2018-Apr-13 11:00N 51°12' W 053°12'6 6.0 220 / 81020.4 1.0-2.6
2018-Apr-13 10:00N 51°06' W 053°12'6 6.0 190 / 91020.0 -1.2-3.5
2018-Apr-13 09:00N 51°12' W 053°12'4 3.8 200 / 51020.0 -1.6-3.7
2018-Apr-13 08:00N 51°12' W 053°06'0 0.0 240 / 61019.8 -2.1-4.8
2018-Apr-13 07:00N 51°12' W 053°06'6 6.0 270 / 61019.6 -2.4-4.8
2018-Apr-13 06:00N 51°18' W 053°06'0 0.0 280 / 81019.3 -2.1-4.1
2018-Apr-13 05:00N 51°18' W 053°06'4 3.8 250 / 41019.2 -2.0-4.0
2018-Apr-13 04:00N 51°18' W 053°00'7 7.1 200 / 31019.2 -2.4-3.3
2018-Apr-13 03:00N 51°24' W 052°54'0 0.0 160 / 61019.2 -2.3-2.9
2018-Apr-13 02:00N 51°24' W 052°54'0 0.0 170 / 81019.3 -2.3-3.0
2018-Apr-13 01:00N 51°24' W 052°54'0 0.0 210 / 61019.5 -2.0-2.6
2018-Apr-13 00:00N 51°24' W 052°54'0 0.0 210 / 41019.3 -2.1-2.6
2018-Apr-12 23:00N 51°24' W 052°54'4 3.7 230 / 51019.0 -2.5-3.1
2018-Apr-12 22:00N 51°24' W 053°00'7 7.1 220 / 21018.3 -1.0-2.2
2018-Apr-12 21:00N 51°18' W 053°06'0 0.0 240 / 21018.2 0.8-2.3
2018-Apr-12 20:00N 51°18' W 053°06'0 0.0 270 / 51018.2 1.2-2.3
2018-Apr-12 19:00N 51°18' W 053°06'6 6.0 280 / 71018.5 1.7-2.3
2018-Apr-12 18:00N 51°12' W 053°06'4 3.8 290 / 91018.6 0.6-2.8
2018-Apr-12 17:00N 51°12' W 053°12'0 0.0 280 / 91019.0 0.5-2.7
2018-Apr-12 16:00N 51°12' W 053°12'7 7.1 270 / 81019.1 -0.0-3.2
2018-Apr-12 15:00N 51°18' W 053°06'0 0.0 260 / 81019.1 0.3-3.7
2018-Apr-12 14:00N 51°18' W 053°06'4 3.8 260 / 111019.4 0.4-4.0
2018-Apr-12 13:00N 51°18' W 053°00'6 6.0 250 / 91019.5 -0.5-3.4
2018-Apr-12 12:00N 51°24' W 053°00'4 3.7 230 / 101019.4 -0.5-3.2
2018-Apr-12 11:00N 51°24' W 052°54'0 0.0 240 / 101019.0 -0.9-3.7
2018-Apr-12 10:00N 51°24' W 052°54'0 0.0 240 / 101019.2 -1.9-3.7
2018-Apr-12 09:00N 51°24' W 052°54'4 3.7 250 / 91018.7 -2.7-4.3
2018-Apr-12 08:00N 51°24' W 053°00'7 7.1 250 / 71018.9 -2.6-4.1
2018-Apr-12 07:00N 51°18' W 053°06'0 0.0 260 / 61018.5 -2.5-4.1
2018-Apr-12 06:00N 51°18' W 053°06'0 0.0 270 / 71018.5 -2.2-4.3
2018-Apr-12 05:00N 51°18' W 053°06'7 7.1 260 / 81018.5 -2.3-3.6
2018-Apr-12 04:00N 51°12' W 053°12'7 7.1 260 / 91018.7 -2.0-3.4
2018-Apr-12 03:00N 51°18' W 053°06'0 0.0 250 / 101019.0 -1.6-2.9
2018-Apr-12 02:00N 51°18' W 053°06'4 3.8 230 / 101019.0 -1.6-2.9
2018-Apr-12 01:00N 51°18' W 053°00'7 7.1 200 / 111018.6 -1.8-3.1
2018-Apr-12 00:00N 51°24' W 052°54'0 0.0 190 / 101018.5 -1.9-3.0
2018-Apr-11 23:00N 51°24' W 052°54'0 0.0 190 / 131018.1 -2.0-2.6
2018-Apr-11 22:00N 51°24' W 052°54'4 3.7 210 / 111017.9 -1.7-2.5
2018-Apr-11 21:00N 51°24' W 052°48'6 6.0 210 / 111017.8 -1.1-2.2
2018-Apr-11 20:00N 51°30' W 052°48'7 7.1 230 / 131018.2 -0.1-0.5
2018-Apr-11 19:00N 51°24' W 052°54'0 0.0 230 / 81018.0 -0.1-1.2
2018-Apr-11 18:00N 51°24' W 052°54'0 0.0 230 / 111018.1 -0.0-1.0
2018-Apr-11 17:00N 51°24' W 052°54'7 7.1 240 / 91018.4 0.1-1.0
2018-Apr-11 16:00N 51°18' W 053°00'4 3.8 220 / 91018.9 0.4-0.4
2018-Apr-11 15:00N 51°18' W 053°06'0 0.0 220 / 111019.3 -0.0-0.1
2018-Apr-11 14:00N 51°18' W 053°06'10 9.6 220 / 121019.2 -0.8-0.9
2018-Apr-11 13:00N 51°24' W 052°54'0 0.0 210 / 141019.5 -1.2-1.6
2018-Apr-11 12:00N 51°24' W 052°54'4 3.7 210 / 121019.2 -1.3-1.9
2018-Apr-11 11:00N 51°24' W 052°48'0 0.0 210 / 121018.9 -1.4-2.3
2018-Apr-11 10:00N 51°24' W 052°48'4 3.7 220 / 131018.4 -1.2-2.7
2018-Apr-11 09:00N 51°24' W 052°42'6 6.0 210 / 111018.1 -2.0-3.0
2018-Apr-11 08:00N 51°30' W 052°42'0 0.0 230 / 121017.8 -1.9-3.2
2018-Apr-11 07:00N 51°30' W 052°42'7 7.1 250 / 121017.4 -2.0-3.2
2018-Apr-11 06:00N 51°36' W 052°36'0 0.0 260 / 141017.2 -1.9-2.8
2018-Apr-11 05:00N 51°36' W 052°36'6 6.0 280 / 181016.7 -2.0-3.1
2018-Apr-11 04:00N 51°30' W 052°36'4 3.7 270 / 151016.7 -1.5-3.0
2018-Apr-11 03:00N 51°30' W 052°42'0 0.0 270 / 181016.2 -2.1-3.0
2018-Apr-11 02:00N 51°30' W 052°42'4 3.7 280 / 151015.5 -2.1-2.7
2018-Apr-11 01:00N 51°30' W 052°48'6 6.0 270 / 111015.0 -2.1-2.9
2018-Apr-11 00:00N 51°24' W 052°48'0 0.0 260 / 131014.2 -2.0-3.6
2018-Apr-10 23:00N 51°24' W 052°48'4 3.7 270 / 121013.3 -2.2-4.2
2018-Apr-10 22:00N 51°24' W 052°54'4 1.9 270 / 121012.3 -2.1-4.6
2018-Apr-10 20:00N 51°24' W 052°48'4 3.7 280 / 221010.2 -1.3-5.6
2018-Apr-10 19:00N 51°24' W 052°54'0 0.0 270 / 231009.2 -2.1-6.3
2018-Apr-10 18:00N 51°24' W 052°54'1312.7 280 / 221008.4 -2.0-6.1
2018-Apr-10 17:00N 51°18' W 053°12'1111.3 290 / 251007.9 -2.1-6.3
2018-Apr-10 16:00N 51°18' W 053°30'1111.3 290 / 221007.5 -2.1-6.5
2018-Apr-10 15:00N 51°18' W 053°48'1312.8 280 / 241006.7 -2.5-6.6
2018-Apr-10 14:00N 51°12' W 054°06'1111.3 280 / 221005.8 -1.9-6.3
2018-Apr-10 13:00N 51°12' W 054°24'1111.3 290 / 221004.9 -3.1-7.2
2018-Apr-10 12:00N 51°12' W 054°42'8 7.5 290 / 251003.8 -3.9-7.6
2018-Apr-10 11:00N 51°12' W 054°54'8 7.5 280 / 251002.8 -4.2-7.8
2018-Apr-10 10:00N 51°12' W 055°06'0 0.0 280 / 241001.4 -4.4-8.0
2018-Apr-10 09:00N 51°12' W 055°06'4 3.8 270 / 28999.5 -4.5-7.7
2018-Apr-10 08:00N 51°12' W 055°12'   260 / 28998.1 -4.8-6.7

Dump ship's entire track history